This is the latest recevied weather packets stored in our database for station/object KF7SOJ. If no packets are shown the sender has not sent any weather packets the latest 10 day(s).
| Time | Temp. | Humidity | Pressure | Rain* | Wind** | Luminosity | Snow |
|---|---|---|---|---|---|---|---|
| 1777546362 | 2.22° C | 65% | 938 hPa | 0 mm | - | 0 W/m² | - |
| 1777546060 | 2.22° C | 64% | 938.2 hPa | 0 mm | - | 0 W/m² | - |
| 1777545756 | 2.22° C | 64% | 937.8 hPa | 0 mm | - | 0 W/m² | - |
| 1777545453 | 2.78° C | 64% | 938.1 hPa | 0 mm | - | 0 W/m² | - |
| 1777545150 | 2.78° C | 62% | 938.1 hPa | 0 mm | - | 0 W/m² | - |
| 1777544847 | 2.22° C | 64% | 938 hPa | 0 mm | - | 0 W/m² | - |
| 1777544543 | 1.67° C | 67% | 938.1 hPa | 0 mm | - | 0 W/m² | - |
| 1777544240 | 1.67° C | 66% | 938.1 hPa | 0 mm | - | 0 W/m² | - |
| 1777543937 | 2.22° C | 64% | 938 hPa | 0 mm | - | 0 W/m² | - |
| 1777543634 | 2.22° C | 65% | 938 hPa | 0 mm | - | 0 W/m² | - |
| 1777543329 | 1.67° C | 66% | 938.1 hPa | 0 mm | - | 0 W/m² | - |
| 1777543025 | 1.11° C | 69% | 938 hPa | 0 mm | - | 0 W/m² | - |
| 1777542722 | 0.56° C | 70% | 938.2 hPa | 0 mm | - | 0 W/m² | - |
| 1777542418 | 2.22° C | 64% | 938.1 hPa | 0 mm | - | 0 W/m² | - |
| 1777542114 | 1.67° C | 67% | 938.1 hPa | 0 mm | - | 0 W/m² | - |
| 1777541812 | 1.67° C | 68% | 938.2 hPa | 0 mm | - | 0 W/m² | - |
| 1777541509 | 1.67° C | 68% | 938.2 hPa | 0 mm | - | 0 W/m² | - |
| 1777541205 | 1.11° C | 70% | 938 hPa | 0 mm | - | 0 W/m² | - |
| 1777540901 | 1.67° C | 70% | 938.2 hPa | 0 mm | - | 0 W/m² | - |
| 1777540599 | 1.67° C | 71% | 938.3 hPa | 0 mm | - | 0 W/m² | - |
| 1777540296 | 2.22° C | 69% | 938.3 hPa | 0 mm | - | 0 W/m² | - |
| 1777539992 | 2.78° C | 68% | 938.3 hPa | 0 mm | - | 0 W/m² | - |
| 1777539688 | 2.78° C | 67% | 938.1 hPa | 0 mm | - | 0 W/m² | - |
| 1777539384 | 2.78° C | 68% | 938.1 hPa | 0 mm | - | 0 W/m² | - |
| 1777539080 | 2.78° C | 66% | 938.3 hPa | 0 mm | - | 0 W/m² | - |
* Rain latest hour (hover to see other rain measurements)
** Current wind speed in m/s (hover to see current wind gust speed)